createdAt,value
2018-05-06T00:00:28.258Z,13.62
2018-05-06T00:01:29.024Z,13.49
2018-05-06T00:02:29.714Z,13.60
2018-05-06T00:03:30.438Z,13.50
2018-05-06T00:04:31.197Z,13.62
2018-05-06T00:05:31.920Z,13.42
2018-05-06T00:06:32.677Z,13.54
2018-05-06T00:07:33.400Z,13.54
2018-05-06T00:08:34.123Z,13.53
2018-05-06T00:09:34.870Z,13.54
2018-05-06T00:10:35.628Z,13.56
2018-05-06T00:11:36.362Z,13.50
2018-05-06T00:12:37.083Z,13.53
2018-05-06T00:13:37.805Z,13.54
2018-05-06T00:14:38.527Z,13.52
2018-05-06T00:15:39.272Z,13.57
2018-05-06T00:16:40.007Z,13.42
2018-05-06T00:17:40.730Z,13.44
2018-05-06T00:18:41.464Z,13.46
2018-05-06T00:19:42.184Z,13.46
2018-05-06T00:20:42.908Z,13.49
2018-05-06T00:21:43.640Z,13.53
2018-05-06T00:22:44.408Z,13.44
2018-05-06T00:23:45.141Z,13.41
2018-05-06T00:24:45.865Z,13.42
2018-05-06T00:25:46.608Z,13.46
2018-05-06T00:26:47.333Z,13.42
2018-05-06T00:27:48.053Z,13.38
2018-05-06T00:28:48.798Z,13.30
2018-05-06T00:29:49.523Z,13.25
2018-05-06T00:30:50.240Z,13.25
2018-05-06T00:31:50.973Z,13.31
2018-05-06T00:32:51.698Z,13.31
2018-05-06T00:33:52.417Z,13.23
2018-05-06T00:34:53.164Z,13.22
2018-05-06T00:35:53.885Z,13.27
2018-05-06T00:36:54.617Z,13.16
2018-05-06T00:37:55.375Z,13.12
2018-05-06T00:38:56.109Z,13.04
2018-05-06T00:39:56.833Z,13.13
2018-05-06T00:40:57.594Z,13.03
2018-05-06T00:41:58.327Z,13.05
2018-05-06T00:42:59.059Z,12.95
2018-05-06T00:43:59.779Z,12.94
2018-05-06T00:45:00.501Z,12.94
2018-05-06T00:46:01.222Z,12.91
2018-05-06T00:47:01.946Z,12.90
2018-05-06T00:48:02.693Z,12.95
2018-05-06T00:49:03.423Z,12.95
2018-05-06T00:50:04.165Z,13.03
2018-05-06T00:51:04.897Z,12.95
2018-05-06T00:52:05.620Z,12.95
2018-05-06T00:53:06.354Z,13.00
2018-05-06T00:54:07.120Z,12.82
2018-05-06T00:55:07.854Z,12.86
2018-05-06T00:56:08.575Z,12.85
2018-05-06T00:57:09.321Z,12.87
2018-05-06T00:58:10.066Z,12.85
2018-05-06T00:59:10.786Z,12.73
2018-05-06T01:00:11.509Z,12.75
2018-05-06T01:01:12.231Z,12.73
2018-05-06T01:02:12.968Z,12.72
2018-05-06T01:03:13.688Z,12.75
2018-05-06T01:04:14.421Z,12.68
2018-05-06T01:05:15.144Z,12.72
2018-05-06T01:06:15.877Z,12.62
2018-05-06T01:07:16.617Z,12.65
2018-05-06T01:08:17.336Z,12.64
2018-05-06T01:09:18.096Z,12.54
2018-05-06T01:10:18.861Z,12.54
2018-05-06T01:11:19.618Z,12.49
2018-05-06T01:12:20.339Z,12.53
2018-05-06T01:13:21.058Z,12.50
2018-05-06T01:14:21.783Z,12.53
2018-05-06T01:15:22.517Z,12.43
2018-05-06T01:16:23.250Z,12.47
2018-05-06T01:17:23.971Z,12.42
2018-05-06T01:18:24.719Z,12.47
2018-05-06T01:19:25.458Z,12.46
2018-05-06T01:20:26.164Z,12.46
2018-05-06T01:21:26.888Z,12.46
2018-05-06T01:22:27.618Z,12.42
2018-05-06T01:23:28.340Z,12.39
2018-05-06T01:24:29.062Z,12.43
2018-05-06T01:25:29.785Z,12.37
2018-05-06T01:26:30.532Z,12.25
2018-05-06T01:27:31.256Z,12.32
2018-05-06T01:28:31.979Z,12.25
2018-05-06T01:29:32.726Z,12.27
2018-05-06T01:30:33.449Z,12.25
2018-05-06T01:31:34.189Z,12.27
2018-05-06T01:32:34.946Z,12.22
2018-05-06T01:33:35.677Z,12.13
2018-05-06T01:34:36.400Z,12.32
2018-05-06T01:35:37.124Z,12.25
2018-05-06T01:36:37.877Z,12.22
2018-05-06T01:37:38.634Z,12.25
2018-05-06T01:38:39.368Z,12.20
2018-05-06T01:39:40.091Z,12.13
2018-05-06T01:40:40.808Z,12.13
2018-05-06T01:41:41.541Z,12.17
2018-05-06T01:42:42.264Z,12.18
2018-05-06T01:43:42.983Z,12.15
2018-05-06T01:44:43.740Z,12.21
2018-05-06T01:45:44.507Z,12.15
2018-05-06T01:46:45.231Z,12.18
2018-05-06T01:47:45.954Z,12.07
2018-05-06T01:48:46.675Z,12.03
2018-05-06T01:49:47.397Z,12.06
2018-05-06T01:50:48.121Z,12.09
2018-05-06T01:51:48.868Z,12.13
2018-05-06T01:52:49.593Z,12.06
2018-05-06T01:53:50.310Z,12.07
2018-05-06T01:54:51.066Z,12.04
2018-05-06T01:55:51.789Z,12.07
2018-05-06T01:56:52.509Z,12.02
2018-05-06T01:57:53.242Z,12.02
2018-05-06T01:58:53.965Z,12.02
2018-05-06T01:59:54.690Z,11.99
2018-05-06T02:00:55.474Z,11.88
2018-05-06T02:01:56.132Z,11.84
2018-05-06T02:02:56.880Z,11.90
2018-05-06T02:03:57.616Z,11.90
2018-05-06T02:04:58.336Z,11.87
2018-05-06T02:05:59.081Z,11.87
2018-05-06T02:06:59.800Z,11.90
2018-05-06T02:08:00.521Z,11.86
2018-05-06T02:09:01.277Z,11.90
2018-05-06T02:10:02.003Z,11.83
2018-05-06T02:11:02.747Z,11.87
2018-05-06T02:12:03.466Z,11.81
2018-05-06T02:13:04.188Z,11.83
2018-05-06T02:14:04.933Z,11.86
2018-05-06T02:15:05.666Z,11.83
2018-05-06T02:16:06.398Z,11.77
2018-05-06T02:17:07.129Z,11.77
2018-05-06T02:18:07.849Z,11.66
2018-05-06T02:19:08.573Z,11.75
2018-05-06T02:20:09.317Z,11.75
2018-05-06T02:21:10.041Z,11.72
2018-05-06T02:22:10.772Z,11.70
2018-05-06T02:23:11.541Z,11.65
2018-05-06T02:24:12.264Z,11.68
2018-05-06T02:25:13.006Z,11.66
2018-05-06T02:26:13.740Z,11.70
2018-05-06T02:27:14.461Z,11.52
2018-05-06T02:28:15.205Z,11.59
2018-05-06T02:29:15.952Z,11.52
2018-05-06T02:30:16.726Z,11.62
2018-05-06T02:31:17.438Z,11.57
2018-05-06T02:32:18.200Z,11.62
2018-05-06T02:33:18.921Z,11.63
2018-05-06T02:34:19.671Z,11.51
2018-05-06T02:35:20.422Z,11.52
2018-05-06T02:36:21.191Z,11.54
2018-05-06T02:37:21.911Z,11.51
2018-05-06T02:38:22.678Z,11.54
2018-05-06T02:39:23.426Z,11.55
2018-05-06T02:40:24.169Z,11.50
2018-05-06T02:41:24.888Z,11.52
2018-05-06T02:42:25.632Z,11.47
2018-05-06T02:43:26.346Z,11.47
2018-05-06T02:44:27.078Z,11.52
2018-05-06T02:45:27.834Z,11.43
2018-05-06T02:46:28.554Z,11.40
2018-05-06T02:47:29.276Z,11.51
2018-05-06T02:48:29.998Z,11.41
2018-05-06T02:49:30.722Z,11.54
2018-05-06T02:50:31.474Z,11.37
2018-05-06T02:51:32.215Z,11.36
2018-05-06T02:52:32.941Z,11.41
2018-05-06T02:53:33.658Z,11.41
2018-05-06T02:54:34.377Z,11.48
2018-05-06T02:55:35.101Z,11.43
2018-05-06T02:56:35.821Z,11.43
2018-05-06T02:57:36.568Z,11.35
2018-05-06T02:58:37.287Z,11.41
2018-05-06T02:59:38.021Z,11.37
2018-05-06T03:00:38.796Z,11.44
2018-05-06T03:01:39.510Z,11.35
2018-05-06T03:02:40.269Z,11.33
2018-05-06T03:03:40.989Z,11.37
2018-05-06T03:04:41.712Z,11.37
2018-05-06T03:05:42.434Z,11.40
2018-05-06T03:06:43.165Z,11.43
2018-05-06T03:07:43.897Z,11.40
2018-05-06T03:08:44.619Z,11.37
2018-05-06T03:09:45.352Z,11.45
2018-05-06T03:10:46.109Z,11.33
2018-05-06T03:11:46.832Z,11.43
2018-05-06T03:12:47.550Z,11.43
2018-05-06T03:13:48.271Z,11.35
2018-05-06T03:14:49.003Z,11.36
2018-05-06T03:15:49.735Z,11.41
2018-05-06T03:16:50.455Z,11.40
2018-05-06T03:17:51.176Z,11.32
2018-05-06T03:18:51.903Z,11.40
2018-05-06T03:19:52.629Z,11.45
2018-05-06T03:20:53.352Z,11.35
2018-05-06T03:21:54.087Z,11.36
2018-05-06T03:22:54.807Z,11.36
2018-05-06T03:23:55.562Z,11.41
2018-05-06T03:24:56.284Z,11.40
2018-05-06T03:25:57.007Z,11.37
2018-05-06T03:26:57.727Z,11.40
2018-05-06T03:27:58.448Z,11.37
2018-05-06T03:28:59.194Z,11.35
2018-05-06T03:29:59.928Z,11.43
2018-05-06T03:31:00.651Z,11.27
2018-05-06T03:32:01.374Z,11.43
2018-05-06T03:33:02.127Z,11.40
2018-05-06T03:34:02.818Z,11.44
2018-05-06T03:35:03.567Z,11.44
2018-05-06T03:36:04.296Z,11.37
2018-05-06T03:37:05.029Z,11.40
2018-05-06T03:38:05.783Z,11.33
2018-05-06T03:39:06.516Z,11.43
2018-05-06T03:40:07.286Z,11.33
2018-05-06T03:41:08.017Z,11.44
2018-05-06T03:42:08.739Z,11.44
2018-05-06T03:43:09.462Z,11.40
2018-05-06T03:44:10.210Z,11.40
2018-05-06T03:45:10.944Z,11.41
2018-05-06T03:46:11.671Z,11.44
2018-05-06T03:47:12.428Z,11.40
2018-05-06T03:48:13.152Z,11.41
2018-05-06T03:49:13.876Z,11.40
2018-05-06T03:50:14.602Z,11.36
2018-05-06T03:51:15.350Z,11.45
2018-05-06T03:52:16.083Z,11.37
2018-05-06T03:53:16.842Z,11.57
2018-05-06T03:54:17.567Z,11.48
2018-05-06T03:55:18.289Z,11.50
2018-05-06T03:56:19.037Z,11.50
2018-05-06T03:57:19.763Z,11.51
2018-05-06T03:58:20.510Z,11.48
2018-05-06T03:59:21.236Z,11.54
2018-05-06T04:00:22.044Z,11.59
2018-05-06T04:01:22.687Z,11.57
2018-05-06T04:02:23.412Z,11.63
2018-05-06T04:03:24.172Z,11.63
2018-05-06T04:04:24.929Z,11.54
2018-05-06T04:05:25.656Z,11.55
2018-05-06T04:06:26.382Z,11.65
2018-05-06T04:07:27.114Z,11.66
2018-05-06T04:08:27.876Z,11.73
2018-05-06T04:09:28.611Z,11.69
2018-05-06T04:10:29.335Z,11.77
2018-05-06T04:11:30.064Z,11.75
2018-05-06T04:12:30.820Z,11.78
2018-05-06T04:13:31.547Z,11.78
2018-05-06T04:14:32.280Z,11.87
2018-05-06T04:15:33.019Z,11.81
2018-05-06T04:16:33.742Z,11.84
2018-05-06T04:17:34.478Z,11.81
2018-05-06T04:18:35.237Z,11.87
2018-05-06T04:19:35.964Z,11.90
2018-05-06T04:20:36.688Z,11.83
2018-05-06T04:21:37.426Z,11.88
2018-05-06T04:22:38.152Z,12.00
2018-05-06T04:23:38.875Z,12.02
2018-05-06T04:24:39.601Z,11.95
2018-05-06T04:25:40.337Z,12.07
2018-05-06T04:26:41.066Z,12.03
2018-05-06T04:27:41.797Z,12.07
2018-05-06T04:28:42.532Z,12.09
2018-05-06T04:29:43.257Z,12.10
2018-05-06T04:30:43.984Z,12.06
2018-05-06T04:31:44.722Z,12.07
2018-05-06T04:32:45.448Z,12.13
2018-05-06T04:33:46.236Z,12.18
2018-05-06T04:34:46.991Z,12.24
2018-05-06T04:35:47.710Z,12.17
2018-05-06T04:36:48.451Z,12.17
2018-05-06T04:37:49.212Z,12.12
2018-05-06T04:38:49.946Z,12.25
2018-05-06T04:39:50.670Z,12.20
2018-05-06T04:40:51.396Z,12.21
2018-05-06T04:41:52.121Z,12.13
2018-05-06T04:42:52.847Z,12.28
2018-05-06T04:43:53.574Z,12.31
2018-05-06T04:44:54.311Z,12.25
2018-05-06T04:45:55.083Z,12.24
2018-05-06T04:46:55.809Z,12.31
2018-05-06T04:47:56.541Z,12.29
2018-05-06T04:48:57.265Z,12.36
2018-05-06T04:49:57.992Z,12.35
2018-05-06T04:50:58.729Z,12.43
2018-05-06T04:51:59.457Z,12.43
2018-05-06T04:53:00.204Z,12.46
2018-05-06T04:54:00.929Z,12.50
2018-05-06T04:55:01.680Z,12.47
2018-05-06T04:56:02.407Z,12.50
2018-05-06T04:57:03.169Z,12.53
2018-05-06T04:58:03.923Z,12.57
2018-05-06T04:59:04.646Z,12.55
2018-05-06T05:00:05.373Z,12.64
2018-05-06T05:01:06.099Z,12.65
2018-05-06T05:02:06.862Z,12.65
2018-05-06T05:03:07.591Z,12.68
2018-05-06T05:04:08.315Z,12.75
2018-05-06T05:05:09.065Z,12.68
2018-05-06T05:06:09.817Z,12.78
2018-05-06T05:07:10.543Z,12.76
2018-05-06T05:08:11.286Z,12.80
2018-05-06T05:09:12.050Z,12.73
2018-05-06T05:10:12.814Z,12.83
2018-05-06T05:11:13.607Z,12.82
2018-05-06T05:12:14.346Z,12.82
2018-05-06T05:13:15.071Z,12.83
2018-05-06T05:14:15.807Z,12.91
2018-05-06T05:15:16.543Z,13.00
2018-05-06T05:16:17.282Z,12.93
2018-05-06T05:17:18.011Z,13.04
2018-05-06T05:18:18.738Z,13.03
2018-05-06T05:19:19.460Z,13.03
2018-05-06T05:20:20.189Z,13.00
2018-05-06T05:21:20.916Z,13.04
2018-05-06T05:22:21.642Z,13.12
2018-05-06T05:23:22.368Z,13.08
2018-05-06T05:24:23.098Z,13.12
2018-05-06T05:25:23.835Z,13.15
2018-05-06T05:26:24.594Z,13.16
2018-05-06T05:27:25.324Z,13.31
2018-05-06T05:28:26.050Z,13.30
2018-05-06T05:29:26.780Z,13.27
2018-05-06T05:30:27.508Z,13.22
2018-05-06T05:31:28.258Z,13.31
2018-05-06T05:32:28.996Z,13.23
2018-05-06T05:33:29.735Z,13.35
2018-05-06T05:34:30.468Z,13.38
2018-05-06T05:35:31.217Z,13.46
2018-05-06T05:36:31.978Z,13.46
2018-05-06T05:37:32.725Z,13.47
2018-05-06T05:38:33.473Z,13.53
2018-05-06T05:39:34.200Z,13.53
2018-05-06T05:40:34.951Z,13.63
2018-05-06T05:41:35.679Z,13.65
2018-05-06T05:42:36.405Z,13.68
2018-05-06T05:43:37.166Z,13.59
2018-05-06T05:44:37.904Z,13.75
2018-05-06T05:45:38.642Z,13.77
2018-05-06T05:46:39.370Z,13.90
2018-05-06T05:47:40.162Z,13.87
2018-05-06T05:48:40.831Z,13.92
2018-05-06T05:49:41.610Z,13.99
2018-05-06T05:50:42.329Z,14.03
2018-05-06T05:51:43.059Z,14.10
2018-05-06T05:52:43.801Z,14.14
2018-05-06T05:53:44.559Z,14.20
2018-05-06T05:54:45.308Z,14.17
2018-05-06T05:55:46.035Z,14.20
2018-05-06T05:56:46.774Z,14.05
2018-05-06T05:57:47.503Z,14.11
2018-05-06T05:58:48.243Z,14.12
2018-05-06T05:59:49.001Z,14.20
2018-05-06T06:00:49.742Z,14.32
2018-05-06T06:01:50.467Z,14.29
2018-05-06T06:02:51.217Z,14.28
2018-05-06T06:03:51.956Z,14.29
2018-05-06T06:04:52.692Z,14.43
2018-05-06T06:05:53.462Z,14.41
2018-05-06T06:06:54.145Z,14.37
2018-05-06T06:07:54.884Z,14.53
2018-05-06T06:08:55.611Z,14.51
2018-05-06T06:09:56.349Z,14.62
2018-05-06T06:10:57.110Z,14.58
2018-05-06T06:11:57.931Z,14.55
2018-05-06T06:12:58.720Z,14.62
2018-05-06T06:13:59.446Z,14.82
2018-05-06T06:15:00.224Z,14.79
2018-05-06T06:16:00.950Z,14.79
2018-05-06T06:17:01.690Z,14.88
2018-05-06T06:18:02.504Z,14.79
2018-05-06T06:19:03.228Z,14.79
2018-05-06T06:20:03.956Z,14.86
2018-05-06T06:21:04.687Z,14.94
2018-05-06T06:22:05.412Z,14.97
2018-05-06T06:23:06.140Z,14.97
2018-05-06T06:24:06.890Z,14.99
2018-05-06T06:25:07.621Z,15.14
2018-05-06T06:26:08.392Z,15.11
2018-05-06T06:27:09.151Z,15.22
2018-05-06T06:28:09.877Z,15.31
2018-05-06T06:29:10.606Z,15.21
2018-05-06T06:30:11.334Z,15.21
2018-05-06T06:31:12.064Z,15.31
2018-05-06T06:32:12.792Z,15.27
2018-05-06T06:33:13.549Z,15.33
2018-05-06T06:34:14.288Z,15.40
2018-05-06T06:35:15.028Z,15.40
2018-05-06T06:36:15.759Z,15.37
2018-05-06T06:37:16.487Z,15.37
2018-05-06T06:38:17.281Z,15.49
2018-05-06T06:39:17.955Z,15.42
2018-05-06T06:40:18.683Z,15.46
2018-05-06T06:41:19.442Z,15.65
2018-05-06T06:42:20.170Z,15.67
2018-05-06T06:43:20.898Z,15.67
2018-05-06T06:44:21.637Z,15.75
2018-05-06T06:45:22.402Z,15.73
2018-05-06T06:46:23.131Z,15.80
2018-05-06T06:47:23.861Z,15.79
2018-05-06T06:48:24.600Z,15.77
2018-05-06T06:49:25.363Z,15.88
2018-05-06T06:50:26.115Z,15.92
2018-05-06T06:51:26.871Z,15.88
2018-05-06T06:52:27.621Z,16.00
2018-05-06T06:53:28.351Z,16.01
2018-05-06T06:54:29.079Z,16.05
2018-05-06T06:55:29.844Z,16.12
2018-05-06T06:56:30.579Z,16.10
2018-05-06T06:57:31.356Z,16.26
2018-05-06T06:58:32.089Z,16.31
2018-05-06T06:59:32.840Z,16.51
2018-05-06T07:00:33.597Z,16.60
2018-05-06T07:01:34.330Z,16.53
2018-05-06T07:02:35.060Z,16.74
2018-05-06T07:03:35.791Z,16.83
2018-05-06T07:04:36.559Z,16.90
2018-05-06T07:05:37.303Z,16.96
2018-05-06T07:06:38.040Z,17.23
2018-05-06T07:07:38.782Z,17.22
2018-05-06T07:08:39.516Z,17.30
2018-05-06T07:09:40.251Z,17.38
2018-05-06T07:10:41.012Z,17.26
2018-05-06T07:11:41.746Z,17.42
2018-05-06T07:12:42.507Z,17.30
2018-05-06T07:13:43.244Z,17.44
2018-05-06T07:14:43.992Z,17.64
2018-05-06T07:15:44.769Z,17.70
2018-05-06T07:16:45.521Z,17.83
2018-05-06T07:17:46.274Z,17.83
2018-05-06T07:18:47.015Z,18.01
2018-05-06T07:19:47.793Z,18.18
2018-05-06T07:20:48.537Z,18.13
2018-05-06T07:21:49.279Z,18.33
2018-05-06T07:22:50.045Z,18.37
2018-05-06T07:23:50.798Z,18.34
2018-05-06T07:24:51.554Z,18.20
2018-05-06T07:25:52.296Z,18.08
2018-05-06T07:26:53.038Z,18.08
2018-05-06T07:27:53.782Z,18.25
2018-05-06T07:28:54.526Z,18.28
2018-05-06T07:29:55.348Z,18.49
2018-05-06T07:30:56.024Z,18.74
2018-05-06T07:31:56.784Z,18.90
2018-05-06T07:32:57.527Z,18.75
2018-05-06T07:33:58.270Z,19.07
2018-05-06T07:34:59.016Z,19.00
2018-05-06T07:35:59.778Z,19.14
2018-05-06T07:37:00.592Z,18.93
2018-05-06T07:38:01.301Z,19.04
2018-05-06T07:39:02.077Z,19.09
2018-05-06T07:40:02.822Z,19.26
2018-05-06T07:41:03.574Z,19.47
2018-05-06T07:42:04.330Z,19.70
2018-05-06T07:43:05.071Z,19.76
2018-05-06T07:44:05.836Z,19.62
2018-05-06T07:45:06.586Z,19.54
2018-05-06T07:46:07.346Z,19.69
2018-05-06T07:47:08.093Z,19.76
2018-05-06T07:48:08.834Z,19.51
2018-05-06T07:49:09.577Z,19.54
2018-05-06T07:50:10.346Z,19.66
2018-05-06T07:51:11.090Z,19.24
2018-05-06T07:52:11.833Z,19.31
2018-05-06T07:53:12.590Z,19.69
2018-05-06T07:54:13.332Z,19.82
2018-05-06T07:55:14.101Z,20.11
2018-05-06T07:56:14.845Z,20.06
2018-05-06T07:57:15.596Z,20.19
2018-05-06T07:58:16.333Z,20.26
2018-05-06T07:59:17.091Z,20.24
2018-05-06T08:00:17.846Z,20.31
2018-05-06T08:01:18.601Z,20.67
2018-05-06T08:02:19.392Z,20.43
2018-05-06T08:03:20.143Z,20.69
2018-05-06T08:04:20.930Z,20.77
2018-05-06T08:05:21.696Z,20.88
2018-05-06T08:06:22.439Z,20.81
2018-05-06T08:07:23.194Z,21.03
2018-05-06T08:08:23.942Z,20.62
2018-05-06T08:09:24.696Z,20.69
2018-05-06T08:10:25.442Z,21.09
2018-05-06T08:11:26.186Z,21.33
2018-05-06T08:12:27.131Z,21.33
2018-05-06T08:13:28.037Z,21.17
2018-05-06T08:14:28.804Z,20.87
2018-05-06T08:15:29.569Z,20.80
2018-05-06T08:16:30.409Z,20.29
2018-05-06T08:17:31.089Z,20.24
2018-05-06T08:18:31.828Z,20.28
2018-05-06T08:19:32.567Z,20.26
2018-05-06T08:20:33.308Z,20.31
2018-05-06T08:21:34.056Z,20.29
2018-05-06T08:22:34.805Z,20.16
2018-05-06T08:23:35.546Z,20.26
2018-05-06T08:24:36.292Z,19.89
2018-05-06T08:25:37.031Z,20.10
2018-05-06T08:26:37.769Z,19.70
2018-05-06T08:27:38.516Z,19.67
2018-05-06T08:28:39.268Z,19.54
2018-05-06T08:29:40.037Z,19.51
2018-05-06T08:30:40.778Z,19.69
2018-05-06T08:31:41.513Z,19.66
2018-05-06T08:32:42.263Z,19.94
2018-05-06T08:33:43.004Z,19.95
2018-05-06T08:34:43.734Z,20.19
2018-05-06T08:35:44.473Z,20.28
2018-05-06T08:36:45.213Z,20.39
2018-05-06T08:37:45.975Z,20.50
2018-05-06T08:38:46.738Z,20.59
2018-05-06T08:39:47.493Z,20.11
2018-05-06T08:40:48.217Z,20.03
2018-05-06T08:41:48.953Z,19.95
2018-05-06T08:42:49.699Z,19.88
2018-05-06T08:43:50.449Z,19.70
2018-05-06T08:44:51.189Z,20.02
2018-05-06T08:45:52.113Z,20.03
2018-05-06T08:46:52.685Z,19.79
2018-05-06T08:47:53.427Z,20.06
2018-05-06T08:48:54.189Z,20.19
2018-05-06T08:49:54.940Z,20.28
2018-05-06T08:50:55.688Z,20.60
2018-05-06T08:51:56.426Z,20.59
2018-05-06T08:52:57.182Z,20.58
2018-05-06T08:53:57.928Z,20.75
2018-05-06T08:54:58.689Z,20.81
2018-05-06T08:55:59.433Z,20.80
2018-05-06T08:57:00.200Z,20.92
2018-05-06T08:58:00.945Z,20.81
2018-05-06T08:59:01.693Z,20.74
2018-05-06T09:00:02.473Z,20.74
2018-05-06T09:01:03.268Z,20.78
2018-05-06T09:02:04.013Z,20.84
2018-05-06T09:03:04.780Z,20.96
2018-05-06T09:04:05.526Z,21.03
2018-05-06T09:05:06.275Z,21.07
2018-05-06T09:06:07.022Z,21.20
2018-05-06T09:07:07.767Z,21.18
2018-05-06T09:08:08.513Z,20.97
2018-05-06T09:09:09.259Z,21.09
2018-05-06T09:10:10.037Z,21.02
2018-05-06T09:11:10.782Z,20.80
2018-05-06T09:12:11.523Z,21.02
2018-05-06T09:13:12.276Z,21.12
2018-05-06T09:14:13.026Z,21.11
2018-05-06T09:15:13.780Z,21.40
2018-05-06T09:16:14.525Z,21.66
2018-05-06T09:17:15.269Z,21.82
2018-05-06T09:18:16.014Z,21.85
2018-05-06T09:19:16.777Z,22.22
2018-05-06T09:20:17.553Z,22.26
2018-05-06T09:21:18.298Z,22.50
2018-05-06T09:22:19.046Z,22.76
2018-05-06T09:23:19.827Z,22.41
2018-05-06T09:24:20.775Z,22.48
2018-05-06T09:25:21.611Z,22.44
2018-05-06T09:26:22.287Z,22.30
2018-05-06T09:27:23.041Z,22.91
2018-05-06T09:28:23.788Z,23.09
2018-05-06T09:29:24.564Z,23.39
2018-05-06T09:30:25.353Z,23.41
2018-05-06T09:31:26.120Z,23.32
2018-05-06T09:32:26.975Z,23.43
2018-05-06T09:33:27.655Z,23.59
2018-05-06T09:34:28.411Z,23.69
2018-05-06T09:35:29.167Z,23.80
2018-05-06T09:36:29.948Z,24.17
2018-05-06T09:37:30.736Z,23.96
2018-05-06T09:38:31.491Z,24.38
2018-05-06T09:39:32.259Z,24.89
2018-05-06T09:40:33.013Z,24.91
2018-05-06T09:41:33.765Z,25.16
2018-05-06T09:42:34.541Z,24.63
2018-05-06T09:43:35.319Z,24.77
2018-05-06T09:44:36.099Z,24.99
2018-05-06T09:45:36.853Z,25.08
2018-05-06T09:46:37.602Z,25.41
2018-05-06T09:47:38.361Z,25.14
2018-05-06T09:48:39.120Z,25.44
2018-05-06T09:49:40.046Z,25.41
2018-05-06T09:50:40.811Z,25.40
2018-05-06T09:51:41.577Z,24.51
2018-05-06T09:52:42.342Z,24.35
2018-05-06T09:53:43.103Z,24.47
2018-05-06T09:54:43.879Z,25.01
2018-05-06T09:55:44.634Z,24.74
2018-05-06T09:56:45.398Z,25.06
2018-05-06T09:57:46.151Z,25.08
2018-05-06T09:58:46.906Z,25.13
2018-05-06T09:59:47.664Z,25.01
2018-05-06T10:00:48.464Z,24.33
2018-05-06T10:01:49.252Z,23.91
2018-05-06T10:02:50.003Z,24.13
2018-05-06T10:03:50.756Z,23.84
2018-05-06T10:04:51.505Z,23.74
2018-05-06T10:05:52.269Z,23.78
2018-05-06T10:06:53.077Z,24.02
2018-05-06T10:07:53.830Z,24.39
2018-05-06T10:08:54.615Z,24.50
2018-05-06T10:09:55.412Z,25.10
2018-05-06T10:10:56.170Z,25.41
2018-05-06T10:11:56.937Z,25.50
2018-05-06T10:12:57.734Z,25.80
2018-05-06T10:13:58.484Z,25.99
2018-05-06T10:14:59.243Z,25.26
2018-05-06T10:16:00.035Z,24.50
2018-05-06T10:17:00.784Z,24.60
2018-05-06T10:18:01.536Z,24.47
2018-05-06T10:19:02.299Z,24.61
2018-05-06T10:20:03.082Z,24.86
2018-05-06T10:21:03.837Z,25.10
2018-05-06T10:22:04.589Z,24.74
2018-05-06T10:23:05.341Z,25.07
2018-05-06T10:24:06.115Z,25.36
2018-05-06T10:25:06.904Z,25.66
2018-05-06T10:26:07.753Z,25.99
2018-05-06T10:27:08.435Z,25.80
2018-05-06T10:28:09.234Z,26.63
2018-05-06T10:29:09.960Z,26.68
2018-05-06T10:30:10.712Z,27.21
2018-05-06T10:31:11.475Z,27.20
2018-05-06T10:32:12.229Z,27.22
2018-05-06T10:33:12.981Z,27.22
2018-05-06T10:34:13.732Z,27.32
2018-05-06T10:35:14.507Z,27.51
2018-05-06T10:36:15.261Z,27.85
2018-05-06T10:37:16.006Z,28.25
2018-05-06T10:38:16.796Z,28.62
2018-05-06T10:39:17.555Z,28.56
2018-05-06T10:40:18.314Z,28.79
2018-05-06T10:41:19.062Z,27.77
2018-05-06T10:42:19.859Z,27.20
2018-05-06T10:43:20.599Z,27.51
2018-05-06T10:44:21.414Z,27.70
2018-05-06T10:45:22.108Z,27.77
2018-05-06T10:46:22.861Z,28.30
2018-05-06T10:47:23.611Z,28.05
2018-05-06T10:48:24.371Z,28.35
2018-05-06T10:49:25.196Z,28.44
2018-05-06T10:50:26.009Z,28.72
2018-05-06T10:51:26.680Z,28.88
2018-05-06T10:52:27.428Z,29.27
2018-05-06T10:53:28.176Z,28.12
2018-05-06T10:54:28.955Z,27.48
2018-05-06T10:55:29.752Z,27.77
2018-05-06T10:56:30.490Z,26.99
2018-05-06T10:57:31.238Z,27.32
2018-05-06T10:58:31.986Z,26.90
2018-05-06T10:59:32.734Z,27.11
2018-05-06T11:00:33.483Z,26.77
2018-05-06T11:01:34.233Z,26.52
2018-05-06T11:02:35.014Z,26.65
2018-05-06T11:03:35.770Z,26.73
2018-05-06T11:04:36.521Z,26.84
2018-05-06T11:05:37.281Z,26.83
2018-05-06T11:06:38.027Z,27.00
2018-05-06T11:07:38.801Z,27.54
2018-05-06T11:08:39.552Z,27.10
2018-05-06T11:09:40.314Z,27.42
2018-05-06T11:10:41.065Z,27.70
2018-05-06T11:11:41.838Z,27.95
2018-05-06T11:12:42.602Z,28.26
2018-05-06T11:13:43.383Z,28.25
2018-05-06T11:14:44.124Z,28.48
2018-05-06T11:15:44.871Z,28.57
2018-05-06T11:16:45.629Z,28.05
2018-05-06T11:17:46.399Z,28.02
2018-05-06T11:18:47.138Z,28.59
2018-05-06T11:19:47.909Z,28.86
2018-05-06T11:20:48.671Z,29.13
2018-05-06T11:21:49.416Z,29.16
2018-05-06T11:22:50.188Z,28.47
2018-05-06T11:23:50.966Z,27.64
2018-05-06T11:24:51.721Z,28.49
2018-05-06T11:25:52.479Z,28.84
2018-05-06T11:26:53.262Z,28.37
2018-05-06T11:27:54.046Z,27.65
2018-05-06T11:28:54.760Z,27.59
2018-05-06T11:29:55.532Z,27.74
2018-05-06T11:30:56.272Z,27.83
2018-05-06T11:31:57.025Z,28.00
2018-05-06T11:32:57.800Z,28.14
2018-05-06T11:33:58.550Z,28.56
2018-05-06T11:34:59.290Z,28.41
2018-05-06T11:36:00.027Z,28.27
2018-05-06T11:37:00.765Z,28.32
2018-05-06T11:38:01.505Z,27.83
2018-05-06T11:39:02.294Z,27.70
2018-05-06T11:40:03.058Z,28.05
2018-05-06T11:41:03.862Z,28.08
2018-05-06T11:42:04.544Z,28.39
2018-05-06T11:43:05.293Z,28.47
2018-05-06T11:44:06.030Z,28.96
2018-05-06T11:45:06.772Z,29.19
2018-05-06T11:46:07.522Z,28.98
2018-05-06T11:47:08.294Z,29.17
2018-05-06T11:48:09.106Z,28.94
2018-05-06T11:49:09.782Z,28.54
2018-05-06T11:50:10.533Z,28.56
2018-05-06T11:51:11.309Z,28.67
2018-05-06T11:52:12.060Z,28.41
2018-05-06T11:53:12.794Z,27.75
2018-05-06T11:54:13.557Z,28.49
2018-05-06T11:55:14.296Z,28.51
2018-05-06T11:56:15.124Z,28.57
2018-05-06T11:57:15.807Z,28.66
2018-05-06T11:58:16.572Z,28.69
2018-05-06T11:59:17.335Z,28.62
2018-05-06T12:00:18.079Z,28.91
2018-05-06T12:01:18.822Z,29.01
2018-05-06T12:02:19.583Z,29.36
2018-05-06T12:03:20.306Z,29.57
2018-05-06T12:04:21.048Z,29.50
2018-05-06T12:05:21.799Z,29.71
2018-05-06T12:06:22.578Z,29.36
2018-05-06T12:07:23.284Z,28.93
2018-05-06T12:08:24.033Z,28.15
2018-05-06T12:09:24.784Z,28.41
2018-05-06T12:10:25.529Z,28.04
2018-05-06T12:11:26.300Z,28.11
2018-05-06T12:12:27.035Z,27.29
2018-05-06T12:13:27.773Z,27.60
2018-05-06T12:14:28.523Z,27.29
2018-05-06T12:15:29.259Z,27.65
2018-05-06T12:16:30.008Z,27.71
2018-05-06T12:17:30.747Z,27.73
2018-05-06T12:18:31.491Z,27.32
2018-05-06T12:19:32.232Z,27.02
2018-05-06T12:20:32.966Z,27.07
2018-05-06T12:21:33.706Z,27.05
2018-05-06T12:22:34.440Z,27.05
2018-05-06T12:23:35.176Z,27.17
2018-05-06T12:24:35.927Z,27.00
2018-05-06T12:25:36.692Z,26.77
2018-05-06T12:26:37.428Z,26.70
2018-05-06T12:27:38.164Z,26.73
2018-05-06T12:28:38.937Z,26.70
2018-05-06T12:29:39.683Z,26.43
2018-05-06T12:30:40.417Z,26.41
2018-05-06T12:31:41.155Z,25.78
2018-05-06T12:32:41.892Z,25.78
2018-05-06T12:33:42.725Z,25.81
2018-05-06T12:34:43.421Z,25.95
2018-05-06T12:35:44.171Z,26.13
2018-05-06T12:36:44.952Z,26.10
2018-05-06T12:37:45.724Z,26.10
2018-05-06T12:38:46.457Z,26.00
2018-05-06T12:39:47.191Z,26.23
2018-05-06T12:40:47.928Z,26.13
2018-05-06T12:41:48.673Z,26.02
2018-05-06T12:42:49.412Z,26.13
2018-05-06T12:43:50.177Z,26.02
2018-05-06T12:44:50.914Z,26.26
2018-05-06T12:45:51.650Z,25.84
2018-05-06T12:46:52.388Z,25.90
2018-05-06T12:47:53.145Z,25.96
2018-05-06T12:48:53.915Z,25.91
2018-05-06T12:49:54.649Z,25.75
2018-05-06T12:50:55.385Z,25.90
2018-05-06T12:51:56.132Z,25.83
2018-05-06T12:52:56.913Z,26.03
2018-05-06T12:53:57.695Z,25.99
2018-05-06T12:54:58.462Z,26.09
2018-05-06T12:55:59.220Z,26.23
2018-05-06T12:56:59.968Z,26.36
2018-05-06T12:58:00.702Z,26.25
2018-05-06T12:59:01.439Z,26.22
2018-05-06T13:00:02.175Z,26.15
2018-05-06T13:01:02.909Z,25.99
2018-05-06T13:02:03.654Z,25.70